sensor_id;sensor_type;location;lat;lon;timestamp;P1;durP1;ratioP1;P2;durP2;ratioP2
10711;SDS011;5407;51.234;6.804;2023-06-22T00:00:47;4.60;;;4.20;;
10711;SDS011;5407;51.234;6.804;2023-06-22T00:03:15;4.40;;;4.05;;
10711;SDS011;5407;51.234;6.804;2023-06-22T00:05:43;5.47;;;4.50;;
10711;SDS011;5407;51.234;6.804;2023-06-22T00:08:10;5.50;;;4.18;;
10711;SDS011;5407;51.234;6.804;2023-06-22T00:10:36;6.57;;;4.20;;
10711;SDS011;5407;51.234;6.804;2023-06-22T00:13:04;6.95;;;4.53;;
10711;SDS011;5407;51.234;6.804;2023-06-22T00:15:31;4.95;;;4.45;;
10711;SDS011;5407;51.234;6.804;2023-06-22T00:17:58;4.72;;;4.32;;
10711;SDS011;5407;51.234;6.804;2023-06-22T00:20:25;4.45;;;3.97;;
10711;SDS011;5407;51.234;6.804;2023-06-22T00:22:55;5.93;;;4.30;;
10711;SDS011;5407;51.234;6.804;2023-06-22T00:25:23;5.15;;;4.65;;
10711;SDS011;5407;51.234;6.804;2023-06-22T00:27:50;4.72;;;4.20;;
10711;SDS011;5407;51.234;6.804;2023-06-22T00:30:17;4.47;;;3.85;;
10711;SDS011;5407;51.234;6.804;2023-06-22T00:32:45;4.95;;;4.47;;
10711;SDS011;5407;51.234;6.804;2023-06-22T00:35:13;4.95;;;4.15;;
10711;SDS011;5407;51.234;6.804;2023-06-22T00:37:40;5.13;;;4.35;;
10711;SDS011;5407;51.234;6.804;2023-06-22T00:40:09;6.00;;;4.60;;
10711;SDS011;5407;51.234;6.804;2023-06-22T00:42:37;4.88;;;4.40;;
10711;SDS011;5407;51.234;6.804;2023-06-22T00:45:05;4.55;;;4.15;;
10711;SDS011;5407;51.234;6.804;2023-06-22T00:47:33;4.82;;;4.20;;
10711;SDS011;5407;51.234;6.804;2023-06-22T00:50:03;7.78;;;4.72;;
10711;SDS011;5407;51.234;6.804;2023-06-22T00:52:33;4.72;;;4.28;;
10711;SDS011;5407;51.234;6.804;2023-06-22T00:55:01;4.70;;;4.30;;
10711;SDS011;5407;51.234;6.804;2023-06-22T00:57:30;6.20;;;4.40;;
10711;SDS011;5407;51.234;6.804;2023-06-22T00:59:58;4.63;;;4.15;;
10711;SDS011;5407;51.234;6.804;2023-06-22T01:02:25;5.93;;;5.00;;
10711;SDS011;5407;51.234;6.804;2023-06-22T01:04:52;7.22;;;4.20;;
10711;SDS011;5407;51.234;6.804;2023-06-22T01:07:30;7.30;;;4.35;;
10711;SDS011;5407;51.234;6.804;2023-06-22T01:10:02;6.43;;;4.60;;
10711;SDS011;5407;51.234;6.804;2023-06-22T01:12:38;5.00;;;4.50;;
10711;SDS011;5407;51.234;6.804;2023-06-22T01:15:10;5.57;;;4.68;;
10711;SDS011;5407;51.234;6.804;2023-06-22T01:17:40;10.10;;;4.75;;
10711;SDS011;5407;51.234;6.804;2023-06-22T01:20:10;5.28;;;4.78;;
10711;SDS011;5407;51.234;6.804;2023-06-22T01:22:42;6.28;;;4.80;;
10711;SDS011;5407;51.234;6.804;2023-06-22T01:25:25;6.50;;;4.70;;
10711;SDS011;5407;51.234;6.804;2023-06-22T01:28:03;4.90;;;4.35;;
10711;SDS011;5407;51.234;6.804;2023-06-22T01:30:42;6.13;;;4.45;;
10711;SDS011;5407;51.234;6.804;2023-06-22T01:33:12;6.70;;;4.70;;
10711;SDS011;5407;51.234;6.804;2023-06-22T01:35:40;6.75;;;4.85;;
10711;SDS011;5407;51.234;6.804;2023-06-22T01:38:08;7.97;;;4.88;;
10711;SDS011;5407;51.234;6.804;2023-06-22T01:40:36;5.10;;;4.60;;
10711;SDS011;5407;51.234;6.804;2023-06-22T01:43:03;9.30;;;4.90;;
10711;SDS011;5407;51.234;6.804;2023-06-22T01:45:34;7.80;;;4.93;;
10711;SDS011;5407;51.234;6.804;2023-06-22T01:48:03;5.55;;;5.03;;
10711;SDS011;5407;51.234;6.804;2023-06-22T01:50:30;9.25;;;5.30;;
10711;SDS011;5407;51.234;6.804;2023-06-22T01:52:57;8.00;;;5.28;;
10711;SDS011;5407;51.234;6.804;2023-06-22T01:55:25;5.68;;;5.18;;
10711;SDS011;5407;51.234;6.804;2023-06-22T01:57:52;6.70;;;5.30;;
10711;SDS011;5407;51.234;6.804;2023-06-22T02:00:20;6.10;;;5.50;;
10711;SDS011;5407;51.234;6.804;2023-06-22T02:02:50;5.78;;;5.22;;
10711;SDS011;5407;51.234;6.804;2023-06-22T02:05:25;8.43;;;5.53;;
10711;SDS011;5407;51.234;6.804;2023-06-22T02:07:56;9.30;;;5.15;;
10711;SDS011;5407;51.234;6.804;2023-06-22T02:10:30;6.47;;;5.40;;
10711;SDS011;5407;51.234;6.804;2023-06-22T02:12:58;5.20;;;4.70;;
10711;SDS011;5407;51.234;6.804;2023-06-22T02:15:27;7.75;;;5.45;;
10711;SDS011;5407;51.234;6.804;2023-06-22T02:17:55;7.78;;;5.63;;
10711;SDS011;5407;51.234;6.804;2023-06-22T02:20:22;7.07;;;4.90;;
10711;SDS011;5407;51.234;6.804;2023-06-22T02:22:51;8.05;;;5.50;;
10711;SDS011;5407;51.234;6.804;2023-06-22T02:25:18;8.05;;;5.68;;
10711;SDS011;5407;51.234;6.804;2023-06-22T02:27:45;6.43;;;5.20;;
10711;SDS011;5407;51.234;6.804;2023-06-22T02:30:12;8.07;;;5.70;;
10711;SDS011;5407;51.234;6.804;2023-06-22T02:32:42;7.88;;;5.55;;
10711;SDS011;5407;51.234;6.804;2023-06-22T02:35:09;6.20;;;5.60;;
10711;SDS011;5407;51.234;6.804;2023-06-22T02:37:38;6.57;;;5.78;;
10711;SDS011;5407;51.234;6.804;2023-06-22T02:40:07;7.85;;;5.55;;
10711;SDS011;5407;51.234;6.804;2023-06-22T02:42:35;8.07;;;5.40;;
10711;SDS011;5407;51.234;6.804;2023-06-22T02:45:02;5.88;;;5.28;;
10711;SDS011;5407;51.234;6.804;2023-06-22T02:47:29;10.95;;;6.18;;
10711;SDS011;5407;51.234;6.804;2023-06-22T02:49:57;7.72;;;6.20;;
10711;SDS011;5407;51.234;6.804;2023-06-22T02:52:24;6.60;;;5.93;;
10711;SDS011;5407;51.234;6.804;2023-06-22T02:54:52;8.65;;;6.30;;
10711;SDS011;5407;51.234;6.804;2023-06-22T02:57:19;6.60;;;5.95;;
10711;SDS011;5407;51.234;6.804;2023-06-22T02:59:46;7.75;;;6.68;;
10711;SDS011;5407;51.234;6.804;2023-06-22T03:02:13;7.45;;;6.47;;
10711;SDS011;5407;51.234;6.804;2023-06-22T03:04:40;8.77;;;6.65;;
10711;SDS011;5407;51.234;6.804;2023-06-22T03:07:09;7.75;;;6.20;;
10711;SDS011;5407;51.234;6.804;2023-06-22T03:09:35;8.02;;;6.53;;
10711;SDS011;5407;51.234;6.804;2023-06-22T03:12:04;10.20;;;6.60;;
10711;SDS011;5407;51.234;6.804;2023-06-22T03:14:48;10.85;;;6.97;;
10711;SDS011;5407;51.234;6.804;2023-06-22T03:17:15;9.15;;;6.95;;
10711;SDS011;5407;51.234;6.804;2023-06-22T03:19:42;11.20;;;6.93;;
10711;SDS011;5407;51.234;6.804;2023-06-22T03:22:09;8.73;;;6.88;;
10711;SDS011;5407;51.234;6.804;2023-06-22T03:24:36;7.82;;;7.03;;
10711;SDS011;5407;51.234;6.804;2023-06-22T03:27:06;7.55;;;6.68;;
10711;SDS011;5407;51.234;6.804;2023-06-22T03:29:33;8.25;;;6.55;;
10711;SDS011;5407;51.234;6.804;2023-06-22T03:32:00;8.13;;;6.22;;
10711;SDS011;5407;51.234;6.804;2023-06-22T03:34:27;7.40;;;6.57;;
10711;SDS011;5407;51.234;6.804;2023-06-22T03:36:59;7.57;;;6.63;;
10711;SDS011;5407;51.234;6.804;2023-06-22T03:39:26;9.45;;;6.40;;
10711;SDS011;5407;51.234;6.804;2023-06-22T03:41:53;9.88;;;7.07;;
10711;SDS011;5407;51.234;6.804;2023-06-22T03:44:21;8.60;;;6.93;;
10711;SDS011;5407;51.234;6.804;2023-06-22T03:46:48;9.68;;;6.78;;
10711;SDS011;5407;51.234;6.804;2023-06-22T03:49:18;8.35;;;6.85;;
10711;SDS011;5407;51.234;6.804;2023-06-22T03:51:45;8.77;;;7.00;;
10711;SDS011;5407;51.234;6.804;2023-06-22T03:54:11;7.95;;;7.15;;
10711;SDS011;5407;51.234;6.804;2023-06-22T03:56:38;9.40;;;7.30;;
10711;SDS011;5407;51.234;6.804;2023-06-22T03:59:05;10.85;;;7.47;;
10711;SDS011;5407;51.234;6.804;2023-06-22T04:01:33;10.50;;;6.80;;
10711;SDS011;5407;51.234;6.804;2023-06-22T04:04:00;10.63;;;7.00;;
10711;SDS011;5407;51.234;6.804;2023-06-22T04:06:27;8.80;;;6.70;;
10711;SDS011;5407;51.234;6.804;2023-06-22T04:08:54;7.82;;;7.03;;
10711;SDS011;5407;51.234;6.804;2023-06-22T04:11:21;7.95;;;7.07;;
10711;SDS011;5407;51.234;6.804;2023-06-22T04:13:48;9.23;;;7.50;;
10711;SDS011;5407;51.234;6.804;2023-06-22T04:16:16;7.40;;;6.65;;
10711;SDS011;5407;51.234;6.804;2023-06-22T04:18:44;10.25;;;6.68;;
10711;SDS011;5407;51.234;6.804;2023-06-22T04:21:12;8.70;;;6.72;;
10711;SDS011;5407;51.234;6.804;2023-06-22T04:23:40;9.20;;;7.05;;
10711;SDS011;5407;51.234;6.804;2023-06-22T04:26:08;10.27;;;7.10;;
10711;SDS011;5407;51.234;6.804;2023-06-22T04:28:35;8.35;;;7.40;;
10711;SDS011;5407;51.234;6.804;2023-06-22T04:31:02;8.18;;;7.38;;
10711;SDS011;5407;51.234;6.804;2023-06-22T04:33:29;8.05;;;6.90;;
10711;SDS011;5407;51.234;6.804;2023-06-22T04:35:57;10.50;;;7.57;;
10711;SDS011;5407;51.234;6.804;2023-06-22T04:38:26;8.55;;;6.97;;
10711;SDS011;5407;51.234;6.804;2023-06-22T04:40:53;14.18;;;7.20;;
10711;SDS011;5407;51.234;6.804;2023-06-22T04:43:20;11.20;;;7.40;;
10711;SDS011;5407;51.234;6.804;2023-06-22T04:45:47;11.23;;;6.72;;
10711;SDS011;5407;51.234;6.804;2023-06-22T04:48:17;8.57;;;6.65;;
10711;SDS011;5407;51.234;6.804;2023-06-22T04:50:44;11.77;;;7.47;;
10711;SDS011;5407;51.234;6.804;2023-06-22T04:53:12;7.78;;;6.95;;
10711;SDS011;5407;51.234;6.804;2023-06-22T04:55:39;8.52;;;7.65;;
10711;SDS011;5407;51.234;6.804;2023-06-22T04:58:10;11.55;;;7.15;;
10711;SDS011;5407;51.234;6.804;2023-06-22T05:00:38;10.52;;;6.85;;
10711;SDS011;5407;51.234;6.804;2023-06-22T05:03:05;7.95;;;6.68;;
10711;SDS011;5407;51.234;6.804;2023-06-22T05:05:36;12.85;;;7.25;;
10711;SDS011;5407;51.234;6.804;2023-06-22T05:08:03;9.95;;;6.75;;
10711;SDS011;5407;51.234;6.804;2023-06-22T05:10:33;9.77;;;6.72;;
10711;SDS011;5407;51.234;6.804;2023-06-22T05:13:00;8.23;;;6.88;;
10711;SDS011;5407;51.234;6.804;2023-06-22T05:15:27;8.57;;;6.75;;
10711;SDS011;5407;51.234;6.804;2023-06-22T05:17:55;8.38;;;6.63;;
10711;SDS011;5407;51.234;6.804;2023-06-22T05:20:23;8.80;;;6.78;;
10711;SDS011;5407;51.234;6.804;2023-06-22T05:22:50;9.07;;;6.57;;
10711;SDS011;5407;51.234;6.804;2023-06-22T05:25:17;8.18;;;6.72;;
10711;SDS011;5407;51.234;6.804;2023-06-22T05:27:45;8.18;;;6.93;;
10711;SDS011;5407;51.234;6.804;2023-06-22T05:30:12;11.32;;;7.15;;
10711;SDS011;5407;51.234;6.804;2023-06-22T05:32:41;12.05;;;6.75;;
10711;SDS011;5407;51.234;6.804;2023-06-22T05:35:09;9.27;;;6.85;;
10711;SDS011;5407;51.234;6.804;2023-06-22T05:37:36;8.32;;;6.95;;
10711;SDS011;5407;51.234;6.804;2023-06-22T05:40:03;10.63;;;6.75;;
10711;SDS011;5407;51.234;6.804;2023-06-22T05:42:32;9.40;;;7.30;;
10711;SDS011;5407;51.234;6.804;2023-06-22T05:45:00;10.63;;;6.85;;
10711;SDS011;5407;51.234;6.804;2023-06-22T05:47:27;9.80;;;6.47;;
10711;SDS011;5407;51.234;6.804;2023-06-22T05:49:54;9.48;;;6.68;;
10711;SDS011;5407;51.234;6.804;2023-06-22T05:52:21;7.95;;;6.55;;
10711;SDS011;5407;51.234;6.804;2023-06-22T05:54:48;11.20;;;6.90;;
10711;SDS011;5407;51.234;6.804;2023-06-22T05:57:15;12.55;;;6.90;;
10711;SDS011;5407;51.234;6.804;2023-06-22T05:59:42;10.07;;;7.03;;
10711;SDS011;5407;51.234;6.804;2023-06-22T06:02:10;8.18;;;7.18;;
10711;SDS011;5407;51.234;6.804;2023-06-22T06:04:37;14.60;;;7.38;;
10711;SDS011;5407;51.234;6.804;2023-06-22T06:07:04;8.43;;;6.97;;
10711;SDS011;5407;51.234;6.804;2023-06-22T06:09:31;8.80;;;7.20;;
10711;SDS011;5407;51.234;6.804;2023-06-22T06:11:58;10.95;;;7.18;;
10711;SDS011;5407;51.234;6.804;2023-06-22T06:14:25;8.75;;;6.82;;
10711;SDS011;5407;51.234;6.804;2023-06-22T06:16:51;9.88;;;6.82;;
10711;SDS011;5407;51.234;6.804;2023-06-22T06:19:20;12.75;;;6.95;;
10711;SDS011;5407;51.234;6.804;2023-06-22T06:21:46;9.70;;;7.15;;
10711;SDS011;5407;51.234;6.804;2023-06-22T06:24:14;10.85;;;7.45;;
10711;SDS011;5407;51.234;6.804;2023-06-22T06:26:41;9.48;;;7.50;;
10711;SDS011;5407;51.234;6.804;2023-06-22T06:29:08;7.82;;;6.72;;
10711;SDS011;5407;51.234;6.804;2023-06-22T06:31:35;7.85;;;7.05;;
10711;SDS011;5407;51.234;6.804;2023-06-22T06:34:02;9.77;;;7.72;;
10711;SDS011;5407;51.234;6.804;2023-06-22T06:36:31;22.02;;;7.22;;
10711;SDS011;5407;51.234;6.804;2023-06-22T06:38:58;14.85;;;7.13;;
10711;SDS011;5407;51.234;6.804;2023-06-22T06:41:24;7.95;;;7.05;;
10711;SDS011;5407;51.234;6.804;2023-06-22T06:43:51;11.48;;;7.00;;
10711;SDS011;5407;51.234;6.804;2023-06-22T06:46:18;8.85;;;6.32;;
10711;SDS011;5407;51.234;6.804;2023-06-22T06:48:45;12.18;;;7.32;;
10711;SDS011;5407;51.234;6.804;2023-06-22T06:51:13;11.40;;;7.32;;
10711;SDS011;5407;51.234;6.804;2023-06-22T06:53:41;10.60;;;7.13;;
10711;SDS011;5407;51.234;6.804;2023-06-22T06:56:08;7.53;;;6.80;;
10711;SDS011;5407;51.234;6.804;2023-06-22T06:58:36;10.07;;;7.72;;
10711;SDS011;5407;51.234;6.804;2023-06-22T07:01:03;15.75;;;7.88;;
10711;SDS011;5407;51.234;6.804;2023-06-22T07:03:29;18.30;;;7.82;;
10711;SDS011;5407;51.234;6.804;2023-06-22T07:05:58;18.67;;;7.97;;
10711;SDS011;5407;51.234;6.804;2023-06-22T07:08:25;16.85;;;8.98;;
10711;SDS011;5407;51.234;6.804;2023-06-22T07:10:53;11.70;;;7.85;;
10711;SDS011;5407;51.234;6.804;2023-06-22T07:13:21;15.73;;;8.50;;
10711;SDS011;5407;51.234;6.804;2023-06-22T07:15:48;105.40;;;13.70;;
10711;SDS011;5407;51.234;6.804;2023-06-22T07:18:14;32.92;;;9.70;;
10711;SDS011;5407;51.234;6.804;2023-06-22T07:20:41;17.05;;;8.73;;
10711;SDS011;5407;51.234;6.804;2023-06-22T07:23:08;15.23;;;8.68;;
10711;SDS011;5407;51.234;6.804;2023-06-22T07:25:35;14.98;;;9.55;;
10711;SDS011;5407;51.234;6.804;2023-06-22T07:28:05;20.52;;;9.35;;
10711;SDS011;5407;51.234;6.804;2023-06-22T07:30:33;16.25;;;11.18;;
10711;SDS011;5407;51.234;6.804;2023-06-22T07:33:00;16.45;;;10.60;;
10711;SDS011;5407;51.234;6.804;2023-06-22T07:35:29;11.05;;;9.82;;
10711;SDS011;5407;51.234;6.804;2023-06-22T07:37:56;11.57;;;9.18;;
10711;SDS011;5407;51.234;6.804;2023-06-22T07:40:23;13.98;;;9.32;;
10711;SDS011;5407;51.234;6.804;2023-06-22T07:42:50;16.27;;;9.75;;
10711;SDS011;5407;51.234;6.804;2023-06-22T07:45:20;14.82;;;9.70;;
10711;SDS011;5407;51.234;6.804;2023-06-22T07:47:47;19.40;;;10.57;;
10711;SDS011;5407;51.234;6.804;2023-06-22T07:50:13;16.85;;;9.80;;
10711;SDS011;5407;51.234;6.804;2023-06-22T07:52:40;12.38;;;10.30;;
10711;SDS011;5407;51.234;6.804;2023-06-22T07:55:07;14.15;;;9.77;;
10711;SDS011;5407;51.234;6.804;2023-06-22T07:57:34;17.20;;;9.77;;
10711;SDS011;5407;51.234;6.804;2023-06-22T08:00:02;12.85;;;10.70;;
10711;SDS011;5407;51.234;6.804;2023-06-22T08:02:39;10.88;;;9.90;;
10711;SDS011;5407;51.234;6.804;2023-06-22T08:05:06;14.75;;;9.70;;
10711;SDS011;5407;51.234;6.804;2023-06-22T08:07:34;12.98;;;9.25;;
10711;SDS011;5407;51.234;6.804;2023-06-22T08:10:02;13.25;;;10.30;;
10711;SDS011;5407;51.234;6.804;2023-06-22T08:12:30;13.30;;;9.23;;
10711;SDS011;5407;51.234;6.804;2023-06-22T08:14:56;12.68;;;9.63;;
10711;SDS011;5407;51.234;6.804;2023-06-22T08:17:23;13.82;;;9.52;;
10711;SDS011;5407;51.234;6.804;2023-06-22T08:19:52;11.50;;;8.90;;
10711;SDS011;5407;51.234;6.804;2023-06-22T08:22:18;10.40;;;9.07;;
10711;SDS011;5407;51.234;6.804;2023-06-22T08:24:45;10.38;;;9.07;;
10711;SDS011;5407;51.234;6.804;2023-06-22T08:27:12;10.00;;;9.00;;
10711;SDS011;5407;51.234;6.804;2023-06-22T08:29:40;13.88;;;10.10;;
10711;SDS011;5407;51.234;6.804;2023-06-22T08:32:08;9.88;;;7.88;;
10711;SDS011;5407;51.234;6.804;2023-06-22T08:34:35;12.40;;;8.07;;
10711;SDS011;5407;51.234;6.804;2023-06-22T08:37:04;9.43;;;8.52;;
10711;SDS011;5407;51.234;6.804;2023-06-22T08:39:31;8.93;;;8.02;;
10711;SDS011;5407;51.234;6.804;2023-06-22T08:41:59;9.38;;;8.15;;
10711;SDS011;5407;51.234;6.804;2023-06-22T08:44:26;9.20;;;8.10;;
10711;SDS011;5407;51.234;6.804;2023-06-22T08:46:52;8.00;;;7.30;;
10711;SDS011;5407;51.234;6.804;2023-06-22T08:49:19;8.43;;;7.53;;
10711;SDS011;5407;51.234;6.804;2023-06-22T08:51:46;8.73;;;7.72;;
10711;SDS011;5407;51.234;6.804;2023-06-22T08:54:16;8.77;;;7.90;;
10711;SDS011;5407;51.234;6.804;2023-06-22T08:56:42;13.55;;;8.35;;
10711;SDS011;5407;51.234;6.804;2023-06-22T08:59:10;10.20;;;7.72;;
10711;SDS011;5407;51.234;6.804;2023-06-22T09:01:36;10.57;;;7.55;;
10711;SDS011;5407;51.234;6.804;2023-06-22T09:04:03;11.25;;;7.80;;
10711;SDS011;5407;51.234;6.804;2023-06-22T09:06:32;8.45;;;6.78;;
10711;SDS011;5407;51.234;6.804;2023-06-22T09:08:59;9.05;;;6.88;;
10711;SDS011;5407;51.234;6.804;2023-06-22T09:11:27;8.07;;;7.28;;
10711;SDS011;5407;51.234;6.804;2023-06-22T09:13:54;22.45;;;7.07;;
10711;SDS011;5407;51.234;6.804;2023-06-22T09:16:21;10.10;;;7.45;;
10711;SDS011;5407;51.234;6.804;2023-06-22T09:18:48;8.50;;;7.35;;
10711;SDS011;5407;51.234;6.804;2023-06-22T09:21:15;7.70;;;6.97;;
10711;SDS011;5407;51.234;6.804;2023-06-22T09:23:42;9.02;;;6.63;;
10711;SDS011;5407;51.234;6.804;2023-06-22T09:26:12;7.53;;;6.50;;
10711;SDS011;5407;51.234;6.804;2023-06-22T09:28:40;7.28;;;6.53;;
10711;SDS011;5407;51.234;6.804;2023-06-22T09:31:07;7.57;;;6.72;;
10711;SDS011;5407;51.234;6.804;2023-06-22T09:33:35;7.13;;;6.40;;
10711;SDS011;5407;51.234;6.804;2023-06-22T09:36:03;7.35;;;6.60;;
10711;SDS011;5407;51.234;6.804;2023-06-22T09:38:34;7.15;;;6.20;;
10711;SDS011;5407;51.234;6.804;2023-06-22T09:41:01;6.97;;;6.32;;
10711;SDS011;5407;51.234;6.804;2023-06-22T09:43:28;7.00;;;6.10;;
10711;SDS011;5407;51.234;6.804;2023-06-22T09:45:56;6.93;;;6.22;;
10711;SDS011;5407;51.234;6.804;2023-06-22T09:48:23;7.47;;;6.35;;
10711;SDS011;5407;51.234;6.804;2023-06-22T09:50:50;9.05;;;6.70;;
10711;SDS011;5407;51.234;6.804;2023-06-22T09:53:17;11.85;;;6.60;;
10711;SDS011;5407;51.234;6.804;2023-06-22T09:55:44;14.23;;;7.15;;
10711;SDS011;5407;51.234;6.804;2023-06-22T09:58:10;10.05;;;6.90;;
10711;SDS011;5407;51.234;6.804;2023-06-22T10:00:37;9.40;;;7.88;;
10711;SDS011;5407;51.234;6.804;2023-06-22T10:03:07;11.50;;;8.90;;
10711;SDS011;5407;51.234;6.804;2023-06-22T10:05:34;17.25;;;8.48;;
10711;SDS011;5407;51.234;6.804;2023-06-22T10:08:01;10.23;;;7.53;;
10711;SDS011;5407;51.234;6.804;2023-06-22T10:10:29;10.85;;;7.45;;
10711;SDS011;5407;51.234;6.804;2023-06-22T10:12:56;8.10;;;7.07;;
10711;SDS011;5407;51.234;6.804;2023-06-22T10:15:28;8.65;;;7.00;;
10711;SDS011;5407;51.234;6.804;2023-06-22T10:17:55;20.35;;;9.25;;
10711;SDS011;5407;51.234;6.804;2023-06-22T10:20:24;7.90;;;7.10;;
10711;SDS011;5407;51.234;6.804;2023-06-22T10:22:51;9.82;;;6.80;;
10711;SDS011;5407;51.234;6.804;2023-06-22T10:25:18;7.68;;;7.07;;
10711;SDS011;5407;51.234;6.804;2023-06-22T10:27:45;10.57;;;7.10;;
10711;SDS011;5407;51.234;6.804;2023-06-22T10:30:12;8.48;;;7.40;;
10711;SDS011;5407;51.234;6.804;2023-06-22T10:32:40;8.23;;;7.45;;
10711;SDS011;5407;51.234;6.804;2023-06-22T10:35:08;9.02;;;7.60;;
10711;SDS011;5407;51.234;6.804;2023-06-22T10:37:40;12.07;;;7.35;;
10711;SDS011;5407;51.234;6.804;2023-06-22T10:40:08;9.52;;;7.65;;
10711;SDS011;5407;51.234;6.804;2023-06-22T10:42:36;11.23;;;7.75;;
10711;SDS011;5407;51.234;6.804;2023-06-22T10:45:03;9.18;;;7.97;;
10711;SDS011;5407;51.234;6.804;2023-06-22T10:47:31;13.35;;;8.18;;
10711;SDS011;5407;51.234;6.804;2023-06-22T10:49:57;10.88;;;8.18;;
10711;SDS011;5407;51.234;6.804;2023-06-22T10:52:24;14.73;;;9.10;;
10711;SDS011;5407;51.234;6.804;2023-06-22T10:54:53;11.75;;;8.85;;
10711;SDS011;5407;51.234;6.804;2023-06-22T10:57:21;13.68;;;9.00;;
10711;SDS011;5407;51.234;6.804;2023-06-22T10:59:48;11.55;;;9.70;;
10711;SDS011;5407;51.234;6.804;2023-06-22T11:02:15;12.63;;;10.73;;
10711;SDS011;5407;51.234;6.804;2023-06-22T11:04:42;15.05;;;11.55;;
10711;SDS011;5407;51.234;6.804;2023-06-22T11:07:09;18.58;;;12.30;;
10711;SDS011;5407;51.234;6.804;2023-06-22T11:09:36;36.60;;;14.52;;
10711;SDS011;5407;51.234;6.804;2023-06-22T11:12:06;30.92;;;16.10;;
10711;SDS011;5407;51.234;6.804;2023-06-22T11:14:33;23.55;;;15.43;;
10711;SDS011;5407;51.234;6.804;2023-06-22T11:17:00;23.98;;;15.27;;
10711;SDS011;5407;51.234;6.804;2023-06-22T11:19:27;25.15;;;15.77;;
10711;SDS011;5407;51.234;6.804;2023-06-22T11:21:54;26.17;;;16.67;;
10711;SDS011;5407;51.234;6.804;2023-06-22T11:24:21;21.63;;;16.20;;
10711;SDS011;5407;51.234;6.804;2023-06-22T11:26:48;22.95;;;15.52;;
10711;SDS011;5407;51.234;6.804;2023-06-22T11:29:16;22.85;;;16.75;;
10711;SDS011;5407;51.234;6.804;2023-06-22T11:31:43;24.45;;;17.35;;
10711;SDS011;5407;51.234;6.804;2023-06-22T11:34:10;23.65;;;17.38;;
10711;SDS011;5407;51.234;6.804;2023-06-22T11:36:37;25.23;;;17.08;;
10711;SDS011;5407;51.234;6.804;2023-06-22T11:39:04;21.83;;;16.45;;
10711;SDS011;5407;51.234;6.804;2023-06-22T11:41:31;25.20;;;17.75;;
10711;SDS011;5407;51.234;6.804;2023-06-22T11:43:58;26.38;;;18.00;;
10711;SDS011;5407;51.234;6.804;2023-06-22T11:46:26;21.42;;;16.95;;
10711;SDS011;5407;51.234;6.804;2023-06-22T11:48:53;18.63;;;16.13;;
10711;SDS011;5407;51.234;6.804;2023-06-22T11:51:20;21.35;;;16.48;;
10711;SDS011;5407;51.234;6.804;2023-06-22T11:53:47;22.75;;;17.90;;
10711;SDS011;5407;51.234;6.804;2023-06-22T11:56:14;19.92;;;16.83;;
10711;SDS011;5407;51.234;6.804;2023-06-22T11:58:41;24.27;;;15.52;;
10711;SDS011;5407;51.234;6.804;2023-06-22T12:01:08;48.90;;;17.80;;
10711;SDS011;5407;51.234;6.804;2023-06-22T12:03:36;58.70;;;18.63;;
10711;SDS011;5407;51.234;6.804;2023-06-22T12:06:03;35.65;;;17.25;;
10711;SDS011;5407;51.234;6.804;2023-06-22T12:08:30;27.85;;;17.50;;
10711;SDS011;5407;51.234;6.804;2023-06-22T12:10:57;23.67;;;16.58;;
10711;SDS011;5407;51.234;6.804;2023-06-22T12:13:23;20.08;;;16.80;;
10711;SDS011;5407;51.234;6.804;2023-06-22T12:15:50;20.00;;;17.40;;
10711;SDS011;5407;51.234;6.804;2023-06-22T12:18:17;19.48;;;17.50;;
10711;SDS011;5407;51.234;6.804;2023-06-22T12:20:47;20.80;;;17.85;;
10711;SDS011;5407;51.234;6.804;2023-06-22T12:23:14;21.38;;;19.08;;
10711;SDS011;5407;51.234;6.804;2023-06-22T12:25:41;21.85;;;17.90;;
10711;SDS011;5407;51.234;6.804;2023-06-22T12:28:10;19.95;;;17.48;;
10711;SDS011;5407;51.234;6.804;2023-06-22T12:30:37;19.80;;;17.75;;
10711;SDS011;5407;51.234;6.804;2023-06-22T12:33:04;20.70;;;18.73;;
10711;SDS011;5407;51.234;6.804;2023-06-22T12:35:31;24.27;;;20.73;;
10711;SDS011;5407;51.234;6.804;2023-06-22T12:37:59;25.98;;;21.77;;
10711;SDS011;5407;51.234;6.804;2023-06-22T12:40:26;28.30;;;22.92;;
10711;SDS011;5407;51.234;6.804;2023-06-22T12:42:53;27.52;;;21.98;;
10711;SDS011;5407;51.234;6.804;2023-06-22T12:45:20;23.67;;;21.23;;
10711;SDS011;5407;51.234;6.804;2023-06-22T12:47:47;29.13;;;21.95;;
10711;SDS011;5407;51.234;6.804;2023-06-22T12:50:15;26.83;;;21.45;;
10711;SDS011;5407;51.234;6.804;2023-06-22T12:52:42;22.85;;;20.30;;
10711;SDS011;5407;51.234;6.804;2023-06-22T12:55:10;22.60;;;20.17;;
10711;SDS011;5407;51.234;6.804;2023-06-22T12:57:37;24.55;;;21.23;;
10711;SDS011;5407;51.234;6.804;2023-06-22T13:00:04;23.08;;;20.60;;
10711;SDS011;5407;51.234;6.804;2023-06-22T13:02:33;24.50;;;21.45;;
10711;SDS011;5407;51.234;6.804;2023-06-22T13:05:00;27.48;;;21.45;;
10711;SDS011;5407;51.234;6.804;2023-06-22T13:07:27;23.80;;;21.50;;
10711;SDS011;5407;51.234;6.804;2023-06-22T13:09:53;24.55;;;21.40;;
10711;SDS011;5407;51.234;6.804;2023-06-22T13:12:22;27.38;;;21.45;;
10711;SDS011;5407;51.234;6.804;2023-06-22T13:14:49;23.65;;;21.38;;
10711;SDS011;5407;51.234;6.804;2023-06-22T13:17:16;24.30;;;20.77;;
10711;SDS011;5407;51.234;6.804;2023-06-22T13:19:43;25.05;;;21.77;;
10711;SDS011;5407;51.234;6.804;2023-06-22T13:22:25;26.13;;;21.48;;
10711;SDS011;5407;51.234;6.804;2023-06-22T13:24:54;26.52;;;22.52;;
10711;SDS011;5407;51.234;6.804;2023-06-22T13:27:22;24.60;;;22.15;;
10711;SDS011;5407;51.234;6.804;2023-06-22T13:29:49;25.88;;;23.45;;
10711;SDS011;5407;51.234;6.804;2023-06-22T13:32:16;26.27;;;22.92;;
10711;SDS011;5407;51.234;6.804;2023-06-22T13:34:43;24.10;;;21.70;;
10711;SDS011;5407;51.234;6.804;2023-06-22T13:37:10;26.00;;;23.15;;
10711;SDS011;5407;51.234;6.804;2023-06-22T13:39:37;24.70;;;22.17;;
10711;SDS011;5407;51.234;6.804;2023-06-22T13:42:04;23.15;;;20.75;;
10711;SDS011;5407;51.234;6.804;2023-06-22T13:44:33;22.60;;;20.42;;
10711;SDS011;5407;51.234;6.804;2023-06-22T13:47:00;22.75;;;20.27;;
10711;SDS011;5407;51.234;6.804;2023-06-22T13:49:27;21.88;;;19.58;;
10711;SDS011;5407;51.234;6.804;2023-06-22T13:51:55;20.98;;;18.77;;
10711;SDS011;5407;51.234;6.804;2023-06-22T13:54:22;20.70;;;18.55;;
10711;SDS011;5407;51.234;6.804;2023-06-22T13:56:49;19.50;;;17.58;;
10711;SDS011;5407;51.234;6.804;2023-06-22T13:59:16;19.58;;;17.52;;
10711;SDS011;5407;51.234;6.804;2023-06-22T14:01:44;20.13;;;17.98;;
10711;SDS011;5407;51.234;6.804;2023-06-22T14:04:11;20.17;;;17.92;;
10711;SDS011;5407;51.234;6.804;2023-06-22T14:06:38;20.40;;;17.38;;
10711;SDS011;5407;51.234;6.804;2023-06-22T14:09:05;22.50;;;18.05;;
10711;SDS011;5407;51.234;6.804;2023-06-22T14:11:32;19.92;;;17.88;;
10711;SDS011;5407;51.234;6.804;2023-06-22T14:13:59;19.27;;;17.27;;
10711;SDS011;5407;51.234;6.804;2023-06-22T14:16:26;19.23;;;17.42;;
10711;SDS011;5407;51.234;6.804;2023-06-22T14:18:54;19.02;;;16.98;;
10711;SDS011;5407;51.234;6.804;2023-06-22T14:21:21;18.90;;;16.88;;
10711;SDS011;5407;51.234;6.804;2023-06-22T14:23:47;19.00;;;17.13;;
10711;SDS011;5407;51.234;6.804;2023-06-22T14:26:15;19.67;;;17.30;;
10711;SDS011;5407;51.234;6.804;2023-06-22T14:28:44;19.42;;;17.40;;
10711;SDS011;5407;51.234;6.804;2023-06-22T14:31:13;20.35;;;18.35;;
10711;SDS011;5407;51.234;6.804;2023-06-22T14:33:44;23.40;;;19.73;;
10711;SDS011;5407;51.234;6.804;2023-06-22T14:36:14;20.25;;;18.23;;
10711;SDS011;5407;51.234;6.804;2023-06-22T14:38:41;21.55;;;18.48;;
10711;SDS011;5407;51.234;6.804;2023-06-22T14:41:09;21.45;;;19.23;;
10711;SDS011;5407;51.234;6.804;2023-06-22T14:43:36;19.73;;;17.67;;
10711;SDS011;5407;51.234;6.804;2023-06-22T14:46:03;19.02;;;17.00;;
10711;SDS011;5407;51.234;6.804;2023-06-22T14:48:30;19.27;;;17.48;;
10711;SDS011;5407;51.234;6.804;2023-06-22T14:50:56;24.45;;;17.20;;
10711;SDS011;5407;51.234;6.804;2023-06-22T14:53:26;19.45;;;17.38;;